L'image de la webcam se met à jour toutes les 30s.
La jauge météo se met à jour toutes les 10s d'après les données envoyées par la station météo du club.
Les graphiques se mettent à jour toutes les 5min et ne s'affichent que si la station est en ligne
Surfaces en herbe impraticables
MAJ le 24/01/2023 11h00 DDE
METAR de LFRD (Source NOAA)
LFRD 301200Z AUTO 29007KT 9999 OVC004 10/10 Q1028 TEMPO 3000 RA

TAF de LFRD (Source NOAA)
TAF LFRD 301100Z 3012/3112 29010KT 9999 BKN012 TEMPO 3012/3015 3000 RA BKN005 PROB40 TEMPO 3012/3015 BKN002 BECMG 3014/3016 VRB05KT BKN020 TEMPO 3022/3108 3000 BR PROB40 TEMPO 3100/3108 0500 FG PROB40 TEMPO 3109/3112 BKN014
Ayez la webcam en fond d'écran de votre téléphone ou de votre tablette Android avec l'appli du club.